Tobias Bolanos International, Costa Rica

3:13 AM CST on August 22, 2014 (GMT -0600)
Escalante | Change Station
CLOSE
Current Station
Personal Weather Station
Location: San Jose, San Jose
Elevation: 3911 ft
Nearby Weather Stations

Elev 3911 ft 9.93 °N, 84.07 °W | Updated 18 seconds ago

Clear
Clear
64.0 °F
Feels Like 64.0 °F
N
4.0
Wind Variable Wind from SE
Gusts 6.0 mph

Today
High -- | Low -- °F
--% Chance of Precip.
Yesterday
High -- | Low -- °F
Precip. -- in
5:27 AM 5:51 PM
Waning Crescent, 9% visible
Pressure 30.01 in
Visibility -9999.0 miles
Clouds
Dew Point 59 °F
Humidity 83%
Rainfall 0.00 in
Snow Depth Not available.
UV 0.0 out of 12
Pollen Not available.
Air Quality Not available.
Flu Activity Not available.
METAR MROC 220900Z 03008KT CAVOK 20/15 A3001 NOSIG

More Conditions Fewer Conditions

Pressure 30.01 in
Visibility -9999.0 miles
Clouds
Dew Point 59 °F
Humidity 83%
Rainfall 0.00 in
Snow Depth Not available.
UV 0.0 out of 12
Pollen Not available.
Air Quality Not available.
Flu Activity Not available.
METAR MROC 220900Z 03008KT CAVOK 20/15 A3001 NOSIG

More Conditions Fewer Conditions

10-Day Weather Forecast

Almanac

Astronomy

Aug. 22, 2014 Rise Set
Actual Time 5:27 AM CST 5:51 PM CST
Civil Twilight 5:06 AM CST 6:12 PM CST
Nautical Twilight 4:41 AM CST 6:37 PM CST
Astronomical Twilight 4:15 AM CST 7:02 PM CST
Moon 3:03 AM CST 3:48 PM CST
Length of Visible Light 13h 06m
Length of Day
12h 23m
Tomorrow will be 0m 31s shorter.
Waning Crescent, 9% of the Moon is Illuminated
Today
Waning Crescent
Aug 25
New
Sep 2
First Quarter
Sep 8
Full
Sep 15
Last Quarter

Yesterday's Extremes

Country Highs Country Lows

Community

WunderPhotos

Upload Photos

1,746,146 photos uploaded!

Nearby

Snow Depth

Not available.

Earthquake Activity

City Distance Mag. Time & Date
No recent earthquake activity has been reported nearby.
Minimum magnitude displayed is 2.5.

Coastal Water Temperatures

Place Temperature
No Stations Reporting

Nearby Weather Stations